Edward Cornwallis — CGJV — position and weather

sailwx.info

Track history (hours):
 
Tides and Currents Weather Stations Pressure Air Temp Water Temp Dewpoint Dewpoint Depression Visibility Wind Speed Wind Dir Waves Ship Positions

Edward Cornwallis

Last reported at 2017-Feb-19 11:00 UTC. Time now 2017-Feb-19 12:04 UTC.
Position N 47°48' W 065°30'.

Length 83 m; draft 6 m.

Type: SAR. MMSI: 316020000.

Wind from 320 at 4 knots

Barometer 997.0 mb
Air temperature -3.8 ° C
Dewpoint -4.0 ° C

Date/timePositionNaut miles runAvg speedWind from/ knotsBaromVisibWave heightAir tempDewpointWater temp
2017-Feb-19 11:00N 47°48' W 065°30'0 0.0 320 / 4997.0 -3.8-4.0
2017-Feb-19 10:00N 47°48' W 065°30'0 0.0 030 / 2996.4 -3.3-3.5
2017-Feb-19 09:00N 47°48' W 065°30'0 0.0 030 / 1995.8 -3.4-3.6
2017-Feb-19 07:00N 47°48' W 065°30'0 0.0 050 / 2995.0 -3.5-4.5
2017-Feb-19 06:00N 47°48' W 065°30'0 0.0 100 / 1995.2 -3.4-4.7
2017-Feb-19 04:00N 47°48' W 065°30'0 0.0 120 / 3996.0 -3.8-4.4
2017-Feb-19 03:00N 47°48' W 065°30'0 0.0 110 / 6996.8 -3.7-4.0
2017-Feb-19 02:00N 47°48' W 065°30'0 0.0 100 / 6998.0 -3.6-3.8
2017-Feb-19 01:00N 47°48' W 065°30'1313.5 160 / 5998.1 -3.4-3.6
2017-Feb-19 00:00N 47°54' W 065°12'1717.2 220 / 8998.1 -2.5-5.4
2017-Feb-18 23:00N 48°00' W 064°48'1313.4 210 / 5997.8 -2.4-6.3
2017-Feb-18 22:00N 48°06' W 064°30'1312.7 230 / 16997.9 -2.4-5.7
2017-Feb-18 21:00N 47°54' W 064°24'1212.0 240 / 20998.4 -2.7-8.0
2017-Feb-18 20:00N 47°42' W 064°24'1212.0 230 / 17999.3 -2.7-6.2
2017-Feb-18 19:00N 47°30' W 064°24'1818.5 230 / 21999.9 -3.2-7.7
2017-Feb-18 18:00N 47°12' W 064°30'1818.0 220 / 191001.1 -3.1-8.5
2017-Feb-18 17:00N 46°54' W 064°30'0 0.0 230 / 151001.4 -3.8-8.6
2017-Feb-18 16:00N 46°54' W 064°30'1312.7 230 / 191002.5 -4.4-8.9
2017-Feb-18 15:00N 46°42' W 064°36'1010.2 240 / 151002.8 -4.5-9.6
2017-Feb-18 14:00N 46°36' W 064°24'1312.7 250 / 151002.3 -5.8-9.9
2017-Feb-18 13:00N 46°24' W 064°18'0 0.0 250 / 171002.7 -6.8-10.1
2017-Feb-18 12:00N 46°24' W 064°18'7 7.3 240 / 151002.5 -6.6-9.9
2017-Feb-18 11:00N 46°18' W 064°12'8 8.3 240 / 131002.0 -6.7-9.5
2017-Feb-18 10:00N 46°18' W 064°00'4 4.1 260 / 121000.9 -7.0-9.4
2017-Feb-18 09:00N 46°18' W 063°54'0 0.0 260 / 121000.0 -6.8-9.3
2017-Feb-18 08:00N 46°18' W 063°54'0 0.0 270 / 11999.1 -6.3-8.9
2017-Feb-18 07:00N 46°18' W 063°54'7 7.3 270 / 18998.2 -5.7-8.4
2017-Feb-18 06:00N 46°12' W 063°48'0 0.0 270 / 15997.5 -5.1-7.5
2017-Feb-18 05:00N 46°12' W 063°48'4 4.2 270 / 16996.7 -3.3-6.1
2017-Feb-18 04:00N 46°12' W 063°42'1010.3 270 / 18995.5 -2.5-5.9
2017-Feb-18 03:00N 46°06' W 063°30'1212.5 280 / 17994.8 -2.2-5.5
2017-Feb-18 02:00N 46°06' W 063°12'1312.7 300 / 18993.3 -2.0-4.3
2017-Feb-18 01:00N 45°54' W 063°06'1312.5 280 / 23992.9 -1.9-4.8
2017-Feb-18 00:00N 45°54' W 062°48'8 8.4 300 / 13991.6 -2.2-4.7
2017-Feb-17 23:00N 45°54' W 062°36'0 0.0 280 / 26990.6 -2.2-4.5
2017-Feb-17 22:00N 45°54' W 062°36'4 4.2 290 / 26990.1 -2.0-4.3
2017-Feb-17 21:00N 45°54' W 062°42'8 8.4 280 / 21989.4 -1.9-3.8
2017-Feb-17 20:00N 45°54' W 062°54'1514.6 260 / 17989.0 -1.8-2.9
2017-Feb-17 19:00N 46°06' W 063°06'6 6.0 280 / 24987.2 -1.8-2.5
2017-Feb-17 18:00N 46°12' W 063°06'1818.5 270 / 16986.6 -1.7-4.0
2017-Feb-17 17:00N 45°54' W 063°00'8 8.4 270 / 20986.4 -2.1-4.2
2017-Feb-17 16:00N 45°54' W 062°48'1312.5 270 / 10986.1 -2.3-4.4
2017-Feb-17 15:00N 45°54' W 062°30'1312.5 260 / 15985.8 -3.1-4.2
2017-Feb-17 14:00N 45°54' W 062°12'1514.6 260 / 25984.7 -3.3-3.9
2017-Feb-17 13:00N 46°06' W 062°00'1312.7 260 / 25983.9 -3.2-3.5
2017-Feb-17 12:00N 46°18' W 061°54'1514.6 260 / 25982.2 -3.1-3.4
2017-Feb-17 11:00N 46°30' W 061°42'7 7.3 270 / 26980.5 -2.8-3.0
2017-Feb-17 10:00N 46°36' W 061°36'7 7.3 260 / 30979.1 -2.9-3.1
2017-Feb-17 09:00N 46°42' W 061°30'15 7.3 260 / 32977.5 -2.4-2.6
2017-Feb-17 07:00N 46°54' W 061°18'4 4.1 260 / 34974.2 -2.0-2.2
2017-Feb-17 06:00N 46°54' W 061°12'1514.5 260 / 32972.2 -1.7-1.8
2017-Feb-17 05:00N 47°06' W 061°00'8 8.2 240 / 23971.1 -1.3-1.4
2017-Feb-17 04:00N 47°06' W 060°48'8 8.2 240 / 30968.2 -1.2-1.4
2017-Feb-17 03:00N 47°06' W 060°36'1212.3 210 / 38966.8 -1.6-1.8
2017-Feb-17 02:00N 47°06' W 060°18'1514.5 210 / 19968.8 -0.4-2.0
2017-Feb-17 01:00N 46°54' W 060°06'1312.7 210 / 27969.4 -0.2-2.1
2017-Feb-17 00:00N 46°42' W 060°00'1312.7 190 / 34969.4 -0.6-2.2
2017-Feb-16 23:00N 46°30' W 059°54'1514.6 200 / 32970.2 -0.2-2.2
2017-Feb-16 22:00N 46°18' W 059°42'1312.7 200 / 37970.8 -0.4-2.3
2017-Feb-16 21:00N 46°06' W 059°36'1312.7 200 / 42972.6 -0.1-2.5
2017-Feb-16 20:00N 45°54' W 059°42'1514.6 200 / 25973.1 0.5-1.0
2017-Feb-16 19:00N 45°42' W 059°54'1717.4 200 / 25973.5 0.8-1.5
2017-Feb-16 18:00N 45°30' W 060°12'1010.3 200 / 25973.8 1.4-0.8
2017-Feb-16 17:00N 45°24' W 060°24'1010.3 200 / 25973.8 2.3 0.8
2017-Feb-16 16:00N 45°18' W 060°36'7 7.3 170 / 22973.8 3.5 2.4
2017-Feb-16 15:00N 45°12' W 060°42'1010.4 180 / 16974.9 3.7 2.7
2017-Feb-16 14:00N 45°06' W 060°54'4 4.2 140 / 14976.1 2.7 2.5
2017-Feb-16 13:00N 45°06' W 061°00'4 4.2 090 / 16976.0 0.5 0.4
2017-Feb-16 12:00N 45°06' W 061°06'6 6.0 090 / 27976.5 -0.0-0.2
2017-Feb-16 11:00N 45°00' W 061°06'4 4.2 070 / 30977.4 -0.8-1.0
2017-Feb-16 10:00N 45°00' W 061°12'1010.4 070 / 26978.7 -1.3-1.5
2017-Feb-16 09:00N 44°54' W 061°24'9 8.5 060 / 31982.3 -1.6-1.7
2017-Feb-16 08:00N 44°54' W 061°36'4 4.3 060 / 23984.2 -1.4-1.6
2017-Feb-16 07:00N 44°54' W 061°42'1010.4 060 / 23987.5 -1.6-1.8
2017-Feb-16 06:00N 44°48' W 061°54'9 8.5 070 / 17991.0 -1.9-2.1
2017-Feb-16 05:00N 44°48' W 062°06'7 7.4 060 / 20993.8 -1.8-2.0
2017-Feb-16 04:00N 44°42' W 062°12'1414.1 080 / 14997.2 -1.9-2.0
2017-Feb-16 03:00N 44°36' W 062°30'1414.2 090 / 9999.0 -1.1-2.5
2017-Feb-16 02:00N 44°30' W 062°48'1414.2 110 / 161001.0 -1.4-3.3
2017-Feb-16 01:00N 44°24' W 063°06'1312.9 100 / 91001.8 -1.8-4.1
2017-Feb-16 00:00N 44°24' W 063°24'1312.7 080 / 161004.1 -2.1-4.6
2017-Feb-15 23:00N 44°36' W 063°30'7 1.5 100 / 81006.3 -2.4-4.9
2017-Feb-15 18:00N 44°42' W 063°36'0 0.0 230 / 31007.3 -1.9-5.7
2017-Feb-15 12:00N 44°42' W 063°36'0 0.0 290 / 91009.2 -4.8-5.6
2017-Feb-15 06:00N 44°42' W 063°36'0 0.0 300 / 161006.7 -5.4-6.3
2017-Feb-15 00:00N 44°42' W 063°36'0 0.0 300 / 161004.4 -5.3-6.7
2017-Feb-14 18:00N 44°42' W 063°36'0 0.0 330 / 211000.3 -2.0-5.7
2017-Feb-14 12:00N 44°42' W 063°36'0 0.0 330 / 19998.9 -3.9-5.1
2017-Feb-14 06:00N 44°42' W 063°36'0 0.0 350 / 16992.9 -4.7-5.9
2017-Feb-14 00:00N 44°42' W 063°36'0 0.0 010 / 11989.7 -2.8-3.3
2017-Feb-13 18:00N 44°42' W 063°36'0 0.0 080 / 19987.5 -1.0-1.2
2017-Feb-13 14:00N 44°42' W 063°36'0 0.0 090 / 23993.1 -0.9-1.1
2017-Feb-13 13:00N 44°42' W 063°36'0 0.0 100 / 17995.7 -1.0-1.2
2017-Feb-13 12:00N 44°42' W 063°36'0 0.0 100 / 19997.2 -1.1-1.3
2017-Feb-13 11:00N 44°42' W 063°36'0 0.0 090 / 18999.2 -1.3-1.5
2017-Feb-13 10:00N 44°42' W 063°36'0 0.0 100 / 171001.5 -2.0-2.2
2017-Feb-13 09:00N 44°42' W 063°36'0 0.0 100 / 151004.2 -2.3-3.0
2017-Feb-13 08:00N 44°42' W 063°36'0 0.0 110 / 111006.6 -2.6-3.4
2017-Feb-13 07:00N 44°42' W 063°36'0 0.0 100 / 151009.0 -2.8-3.5
2017-Feb-13 06:00N 44°42' W 063°36'0 0.0 100 / 131011.2 -3.0-3.5
2017-Feb-13 05:00N 44°42' W 063°36'0 0.0 110 / 131012.9 -2.2-4.5
2017-Feb-13 04:00N 44°42' W 063°36'0 0.0 110 / 131014.5 -1.8-4.9
2017-Feb-13 03:00N 44°42' W 063°36'0 0.0 100 / 101015.9 -1.8-5.1
2017-Feb-13 02:00N 44°42' W 063°36'0 0.0 100 / 91017.4 -2.6-6.1
2017-Feb-13 01:00N 44°42' W 063°36'0 0.0 090 / 91020.1 -3.2-6.8
2017-Feb-13 00:00N 44°42' W 063°36'0 0.0 100 / 81020.6 -3.4-7.4
2017-Feb-12 23:00N 44°42' W 063°36'0 0.0 100 / 101021.8 -3.5-7.8
2017-Feb-12 22:00N 44°42' W 063°36'0 0.0 100 / 91022.6 -3.5-8.0
2017-Feb-12 21:00N 44°42' W 063°36'0 0.0 100 / 111023.3 -3.2-8.0
2017-Feb-12 20:00N 44°42' W 063°36'7 7.4 120 / 91023.6 -3.0-8.2
2017-Feb-12 19:00N 44°36' W 063°30'1010.4 080 / 241023.4 -2.7-7.3
2017-Feb-12 18:00N 44°30' W 063°18'1717.1 080 / 201023.7 -1.9-6.3
2017-Feb-12 17:00N 44°30' W 062°54'1414.2 080 / 221024.3 -2.3-7.6
2017-Feb-12 16:00N 44°36' W 062°36'1414.1 060 / 181025.0 -2.3-5.1
2017-Feb-12 15:00N 44°42' W 062°18'1414.1 050 / 171026.6 -3.7-6.2
2017-Feb-12 14:00N 44°48' W 062°00'7 7.4 050 / 171026.4 -4.3-6.7
2017-Feb-12 13:00N 44°54' W 061°54'7 7.4 030 / 181026.5 -6.8-9.1
2017-Feb-12 12:00N 45°00' W 061°48'7 7.4 020 / 161026.1 -8.2-9.9
2017-Feb-12 11:00N 44°54' W 061°54'6 6.0 010 / 151026.2 -9.7-11.2
2017-Feb-12 10:00N 45°00' W 061°54'0 0.0 010 / 111026.1 -11.8-13.4
2017-Feb-12 09:00N 45°00' W 061°54'0 0.0 010 / 101025.8 -11.7-13.6
2017-Feb-12 08:00N 45°00' W 061°54'0 0.0 010 / 91025.5 -11.2-14.5
2017-Feb-12 07:00N 45°00' W 061°54'0 0.0 020 / 101025.7 -10.6-14.5
2017-Feb-12 06:00N 45°00' W 061°54'0 0.0 030 / 101025.7 -10.0-13.5
2017-Feb-12 05:00N 45°00' W 061°54'0 0.0 040 / 81025.4 -10.0-13.0
2017-Feb-12 04:00N 45°00' W 061°54'0 0.0 020 / 91025.1 -9.7-12.6
2017-Feb-12 03:00N 45°00' W 061°54'0 0.0 040 / 71025.2 -9.4-12.3
2017-Feb-12 02:00N 45°00' W 061°54'0 0.0 040 / 61025.3 -8.9-12.4
2017-Feb-12 01:00N 45°00' W 061°54'0 0.0 030 / 51025.1 -8.2-13.2
2017-Feb-12 00:00N 45°00' W 061°54'0 0.0 020 / 41025.1 -7.9-16.4
2017-Feb-11 23:00N 45°00' W 061°54'0 0.0 190 / 21024.6 -8.2-16.5
2017-Feb-11 22:00N 45°00' W 061°54'6 6.0 180 / 31024.3 -8.3-16.1
2017-Feb-11 21:00N 44°54' W 061°54'9 8.5 150 / 21023.8 -8.5-16.3
2017-Feb-11 20:00N 44°54' W 062°06'7 7.4 230 / 21023.3 -8.7-16.4
2017-Feb-11 19:00N 44°48' W 062°12'1414.1 270 / 51023.5 -9.3-15.5
2017-Feb-11 18:00N 44°42' W 062°30'1414.1 290 / 71023.8 -10.1-15.0
2017-Feb-11 17:00N 44°36' W 062°48'1817.6 290 / 71024.2 -9.9-14.3
2017-Feb-11 16:00N 44°24' W 063°06'1312.9 270 / 71024.9 -10.2-16.4
2017-Feb-11 15:00N 44°24' W 063°24'1312.7 280 / 71025.0 -10.6-15.5
2017-Feb-11 14:00N 44°36' W 063°30'4 4.3 300 / 61024.2 -11.4-16.5
2017-Feb-11 13:00N 44°36' W 063°36'6 6.0 260 / 61023.6 -11.8-16.5
2017-Feb-11 12:00N 44°42' W 063°36'0 0.0 270 / 81023.1 -13.0-15.9
2017-Feb-11 11:00N 44°42' W 063°36'0 0.0 270 / 81022.9 -13.0-15.6
2017-Feb-11 10:00N 44°42' W 063°36'0 0.0 270 / 121022.7 -13.4-15.5
2017-Feb-11 09:00N 44°42' W 063°36'0 0.0 260 / 111022.0 -13.7-15.4
2017-Feb-11 08:00N 44°42' W 063°36'0 0.0 260 / 111021.3 -13.9-15.9
2017-Feb-11 07:00N 44°42' W 063°36'0 0.0 270 / 101020.7 -14.0-17.1
2017-Feb-11 06:00N 44°42' W 063°36'0 0.0 280 / 131019.8 -13.6-16.5
2017-Feb-11 05:00N 44°42' W 063°36'0 0.0 290 / 141018.8 -13.3-16.4
2017-Feb-11 04:00N 44°42' W 063°36'0 0.0 290 / 141017.9 -12.9-16.3
2017-Feb-11 03:00N 44°42' W 063°36'0 0.0 310 / 171016.9 -12.5-15.2
2017-Feb-11 02:00N 44°42' W 063°36'0 0.0 300 / 181015.8 -12.3-14.5
2017-Feb-11 01:00N 44°42' W 063°36'0 0.0 300 / 161014.8 -12.2-15.1
2017-Feb-11 00:00N 44°42' W 063°36'0 0.0 290 / 171013.7 -11.8-14.9
2017-Feb-10 23:00N 44°42' W 063°36'0 0.0 290 / 211012.0 -11.1-14.6
2017-Feb-10 22:00N 44°42' W 063°36'0 0.0 280 / 231010.2 -10.3-14.9
2017-Feb-10 21:00N 44°42' W 063°36'0 0.0 280 / 201008.7 -9.8-15.1
2017-Feb-10 20:00N 44°42' W 063°36'0 0.0 270 / 221007.7 -9.4-14.9
2017-Feb-10 19:00N 44°42' W 063°36'0 0.0 270 / 221006.7 -9.2-14.9
2017-Feb-10 18:00N 44°42' W 063°36'0 0.0 280 / 161005.6 -8.9-13.7
2017-Feb-10 17:00N 44°42' W 063°36'0 0.0 270 / 191004.7 -9.3-13.7
2017-Feb-10 16:00N 44°42' W 063°36'0 0.0 280 / 201004.4 -9.9-14.1
2017-Feb-10 15:00N 44°42' W 063°36'0 0.0 280 / 211003.5 -9.7-13.2
2017-Feb-10 14:00N 44°42' W 063°36'0 0.0 290 / 211002.7 -9.7-13.1
2017-Feb-10 13:00N 44°42' W 063°36'0 0.0 280 / 241002.0 -9.7-12.6
2017-Feb-10 12:00N 44°42' W 063°36'0 0.0 280 / 19999.9 -8.9-11.3
2017-Feb-10 11:00N 44°42' W 063°36'0 0.0 290 / 23995.5 -8.5-10.8
2017-Feb-10 10:00N 44°42' W 063°36'0 0.0 290 / 27993.2 -9.2-11.4
2017-Feb-10 09:00N 44°42' W 063°36'0 0.0 290 / 35988.3 -7.9-9.4
2017-Feb-10 08:00N 44°42' W 063°36'0 0.0 310 / 26982.5 -6.0-7.4
2017-Feb-10 07:00N 44°42' W 063°36'0 0.0 330 / 28978.5 -5.3-6.0
2017-Feb-10 06:00N 44°42' W 063°36'0 0.0 340 / 23977.4 -5.2-5.6
2017-Feb-10 05:00N 44°42' W 063°36'0 0.0 340 / 17978.3 -5.7-6.1
2017-Feb-10 04:00N 44°42' W 063°36'0 0.0 350 / 12979.6 -5.2-5.5
2017-Feb-10 03:00N 44°42' W 063°36'0 0.0 340 / 6981.9 -4.9-5.1
2017-Feb-10 02:00N 44°42' W 063°36'0 0.0 030 / 4983.6 -5.1-5.3
2017-Feb-10 01:00N 44°42' W 063°36'0 0.0 050 / 6985.5 -5.1-5.7
2017-Feb-10 00:00N 44°42' W 063°36'0 0.0 030 / 6990.1 -5.0-5.2
2017-Feb-09 23:00N 44°42' W 063°36'0 0.0 060 / 7994.5 -3.8-7.2
2017-Feb-09 22:00N 44°42' W 063°36'0 0.0 060 / 9997.7 -3.5-8.8
2017-Feb-09 21:00N 44°42' W 063°36'0 0.0 050 / 71000.8 -2.6-8.7
2017-Feb-09 20:00N 44°42' W 063°36'0 0.0 010 / 71003.8 -2.1-9.2
2017-Feb-09 19:00N 44°42' W 063°36'0 0.0 360 / 81005.8 -1.7-9.1
2017-Feb-09 18:00N 44°42' W 063°36'0 0.0 350 / 71005.4 -1.2-7.9
2017-Feb-09 17:00N 44°42' W 063°36'0 0.0 050 / 31006.3 -0.8-7.4
2017-Feb-09 16:00N 44°42' W 063°36'0 0.0 030 / 31007.0 -1.5-6.9
2017-Feb-09 15:00N 44°42' W 063°36'0 0.0 020 / 51007.6 -2.1-6.3
2017-Feb-09 14:00N 44°42' W 063°36'0 0.0 060 / 51007.7 -2.3-5.6
2017-Feb-09 13:00N 44°42' W 063°36'0 0.0 020 / 61008.2 -2.7-5.4
2017-Feb-09 12:00N 44°42' W 063°36'0 0.0 010 / 51007.3 -2.6-6.1
2017-Feb-09 11:00N 44°42' W 063°36'   340 / 81006.4 -2.2-6.6
Track history (hours):
 
Tides and Currents Weather Stations Pressure Air Temp Water Temp Dewpoint Dewpoint Depression Visibility Wind Speed Wind Dir Waves Ship Positions

Edward Cornwallis

Last reported at 2017-Feb-19 11:00 UTC. Time now 2017-Feb-19 12:04 UTC.
Position N 47°48' W 065°30'.

Length 83 m; draft 6 m.

Type: SAR. MMSI: 316020000.

Wind from 320 at 4 knots

Barometer 997.0 mb
Air temperature -3.8 ° C
Dewpoint -4.0 ° C

Date/timePositionNaut miles runAvg speedWind from/ knotsBaromVisibWave heightAir tempDewpointWater temp
2017-Feb-19 11:00N 47°48' W 065°30'0 0.0 320 / 4997.0 -3.8-4.0
2017-Feb-19 10:00N 47°48' W 065°30'0 0.0 030 / 2996.4 -3.3-3.5
2017-Feb-19 09:00N 47°48' W 065°30'0 0.0 030 / 1995.8 -3.4-3.6
2017-Feb-19 07:00N 47°48' W 065°30'0 0.0 050 / 2995.0 -3.5-4.5
2017-Feb-19 06:00N 47°48' W 065°30'0 0.0 100 / 1995.2 -3.4-4.7
2017-Feb-19 04:00N 47°48' W 065°30'0 0.0 120 / 3996.0 -3.8-4.4
2017-Feb-19 03:00N 47°48' W 065°30'0 0.0 110 / 6996.8 -3.7-4.0
2017-Feb-19 02:00N 47°48' W 065°30'0 0.0 100 / 6998.0 -3.6-3.8
2017-Feb-19 01:00N 47°48' W 065°30'1313.5 160 / 5998.1 -3.4-3.6
2017-Feb-19 00:00N 47°54' W 065°12'1717.2 220 / 8998.1 -2.5-5.4
2017-Feb-18 23:00N 48°00' W 064°48'1313.4 210 / 5997.8 -2.4-6.3
2017-Feb-18 22:00N 48°06' W 064°30'1312.7 230 / 16997.9 -2.4-5.7
2017-Feb-18 21:00N 47°54' W 064°24'1212.0 240 / 20998.4 -2.7-8.0
2017-Feb-18 20:00N 47°42' W 064°24'1212.0 230 / 17999.3 -2.7-6.2
2017-Feb-18 19:00N 47°30' W 064°24'1818.5 230 / 21999.9 -3.2-7.7
2017-Feb-18 18:00N 47°12' W 064°30'1818.0 220 / 191001.1 -3.1-8.5
2017-Feb-18 17:00N 46°54' W 064°30'0 0.0 230 / 151001.4 -3.8-8.6
2017-Feb-18 16:00N 46°54' W 064°30'1312.7 230 / 191002.5 -4.4-8.9
2017-Feb-18 15:00N 46°42' W 064°36'1010.2 240 / 151002.8 -4.5-9.6
2017-Feb-18 14:00N 46°36' W 064°24'1312.7 250 / 151002.3 -5.8-9.9
2017-Feb-18 13:00N 46°24' W 064°18'0 0.0 250 / 171002.7 -6.8-10.1
2017-Feb-18 12:00N 46°24' W 064°18'7 7.3 240 / 151002.5 -6.6-9.9
2017-Feb-18 11:00N 46°18' W 064°12'8 8.3 240 / 131002.0 -6.7-9.5
2017-Feb-18 10:00N 46°18' W 064°00'4 4.1 260 / 121000.9 -7.0-9.4
2017-Feb-18 09:00N 46°18' W 063°54'0 0.0 260 / 121000.0 -6.8-9.3
2017-Feb-18 08:00N 46°18' W 063°54'0 0.0 270 / 11999.1 -6.3-8.9
2017-Feb-18 07:00N 46°18' W 063°54'7 7.3 270 / 18998.2 -5.7-8.4
2017-Feb-18 06:00N 46°12' W 063°48'0 0.0 270 / 15997.5 -5.1-7.5
2017-Feb-18 05:00N 46°12' W 063°48'4 4.2 270 / 16996.7 -3.3-6.1
2017-Feb-18 04:00N 46°12' W 063°42'1010.3 270 / 18995.5 -2.5-5.9
2017-Feb-18 03:00N 46°06' W 063°30'1212.5 280 / 17994.8 -2.2-5.5
2017-Feb-18 02:00N 46°06' W 063°12'1312.7 300 / 18993.3 -2.0-4.3
2017-Feb-18 01:00N 45°54' W 063°06'1312.5 280 / 23992.9 -1.9-4.8
2017-Feb-18 00:00N 45°54' W 062°48'8 8.4 300 / 13991.6 -2.2-4.7
2017-Feb-17 23:00N 45°54' W 062°36'0 0.0 280 / 26990.6 -2.2-4.5
2017-Feb-17 22:00N 45°54' W 062°36'4 4.2 290 / 26990.1 -2.0-4.3
2017-Feb-17 21:00N 45°54' W 062°42'8 8.4 280 / 21989.4 -1.9-3.8
2017-Feb-17 20:00N 45°54' W 062°54'1514.6 260 / 17989.0 -1.8-2.9
2017-Feb-17 19:00N 46°06' W 063°06'6 6.0 280 / 24987.2 -1.8-2.5
2017-Feb-17 18:00N 46°12' W 063°06'1818.5 270 / 16986.6 -1.7-4.0
2017-Feb-17 17:00N 45°54' W 063°00'8 8.4 270 / 20986.4 -2.1-4.2
2017-Feb-17 16:00N 45°54' W 062°48'1312.5 270 / 10986.1 -2.3-4.4
2017-Feb-17 15:00N 45°54' W 062°30'1312.5 260 / 15985.8 -3.1-4.2
2017-Feb-17 14:00N 45°54' W 062°12'1514.6 260 / 25984.7 -3.3-3.9
2017-Feb-17 13:00N 46°06' W 062°00'1312.7 260 / 25983.9 -3.2-3.5
2017-Feb-17 12:00N 46°18' W 061°54'1514.6 260 / 25982.2 -3.1-3.4
2017-Feb-17 11:00N 46°30' W 061°42'7 7.3 270 / 26980.5 -2.8-3.0
2017-Feb-17 10:00N 46°36' W 061°36'7 7.3 260 / 30979.1 -2.9-3.1
2017-Feb-17 09:00N 46°42' W 061°30'15 7.3 260 / 32977.5 -2.4-2.6
2017-Feb-17 07:00N 46°54' W 061°18'4 4.1 260 / 34974.2 -2.0-2.2
2017-Feb-17 06:00N 46°54' W 061°12'1514.5 260 / 32972.2 -1.7-1.8
2017-Feb-17 05:00N 47°06' W 061°00'8 8.2 240 / 23971.1 -1.3-1.4
2017-Feb-17 04:00N 47°06' W 060°48'8 8.2 240 / 30968.2 -1.2-1.4
2017-Feb-17 03:00N 47°06' W 060°36'1212.3 210 / 38966.8 -1.6-1.8
2017-Feb-17 02:00N 47°06' W 060°18'1514.5 210 / 19968.8 -0.4-2.0
2017-Feb-17 01:00N 46°54' W 060°06'1312.7 210 / 27969.4 -0.2-2.1
2017-Feb-17 00:00N 46°42' W 060°00'1312.7 190 / 34969.4 -0.6-2.2
2017-Feb-16 23:00N 46°30' W 059°54'1514.6 200 / 32970.2 -0.2-2.2
2017-Feb-16 22:00N 46°18' W 059°42'1312.7 200 / 37970.8 -0.4-2.3
2017-Feb-16 21:00N 46°06' W 059°36'1312.7 200 / 42972.6 -0.1-2.5
2017-Feb-16 20:00N 45°54' W 059°42'1514.6 200 / 25973.1 0.5-1.0
2017-Feb-16 19:00N 45°42' W 059°54'1717.4 200 / 25973.5 0.8-1.5
2017-Feb-16 18:00N 45°30' W 060°12'1010.3 200 / 25973.8 1.4-0.8
2017-Feb-16 17:00N 45°24' W 060°24'1010.3 200 / 25973.8 2.3 0.8
2017-Feb-16 16:00N 45°18' W 060°36'7 7.3 170 / 22973.8 3.5 2.4
2017-Feb-16 15:00N 45°12' W 060°42'1010.4 180 / 16974.9 3.7 2.7
2017-Feb-16 14:00N 45°06' W 060°54'4 4.2 140 / 14976.1 2.7 2.5
2017-Feb-16 13:00N 45°06' W 061°00'4 4.2 090 / 16976.0 0.5 0.4
2017-Feb-16 12:00N 45°06' W 061°06'6 6.0 090 / 27976.5 -0.0-0.2
2017-Feb-16 11:00N 45°00' W 061°06'4 4.2 070 / 30977.4 -0.8-1.0
2017-Feb-16 10:00N 45°00' W 061°12'1010.4 070 / 26978.7 -1.3-1.5
2017-Feb-16 09:00N 44°54' W 061°24'9 8.5 060 / 31982.3 -1.6-1.7
2017-Feb-16 08:00N 44°54' W 061°36'4 4.3 060 / 23984.2 -1.4-1.6
2017-Feb-16 07:00N 44°54' W 061°42'1010.4 060 / 23987.5 -1.6-1.8
2017-Feb-16 06:00N 44°48' W 061°54'9 8.5 070 / 17991.0 -1.9-2.1
2017-Feb-16 05:00N 44°48' W 062°06'7 7.4 060 / 20993.8 -1.8-2.0
2017-Feb-16 04:00N 44°42' W 062°12'1414.1 080 / 14997.2 -1.9-2.0
2017-Feb-16 03:00N 44°36' W 062°30'1414.2 090 / 9999.0 -1.1-2.5
2017-Feb-16 02:00N 44°30' W 062°48'1414.2 110 / 161001.0 -1.4-3.3
2017-Feb-16 01:00N 44°24' W 063°06'1312.9 100 / 91001.8 -1.8-4.1
2017-Feb-16 00:00N 44°24' W 063°24'1312.7 080 / 161004.1 -2.1-4.6
2017-Feb-15 23:00N 44°36' W 063°30'7 1.5 100 / 81006.3 -2.4-4.9
2017-Feb-15 18:00N 44°42' W 063°36'0 0.0 230 / 31007.3 -1.9-5.7
2017-Feb-15 12:00N 44°42' W 063°36'0 0.0 290 / 91009.2 -4.8-5.6
2017-Feb-15 06:00N 44°42' W 063°36'0 0.0 300 / 161006.7 -5.4-6.3
2017-Feb-15 00:00N 44°42' W 063°36'0 0.0 300 / 161004.4 -5.3-6.7
2017-Feb-14 18:00N 44°42' W 063°36'0 0.0 330 / 211000.3 -2.0-5.7
2017-Feb-14 12:00N 44°42' W 063°36'0 0.0 330 / 19998.9 -3.9-5.1
2017-Feb-14 06:00N 44°42' W 063°36'0 0.0 350 / 16992.9 -4.7-5.9
2017-Feb-14 00:00N 44°42' W 063°36'0 0.0 010 / 11989.7 -2.8-3.3
2017-Feb-13 18:00N 44°42' W 063°36'0 0.0 080 / 19987.5 -1.0-1.2
2017-Feb-13 14:00N 44°42' W 063°36'0 0.0 090 / 23993.1 -0.9-1.1
2017-Feb-13 13:00N 44°42' W 063°36'0 0.0 100 / 17995.7 -1.0-1.2
2017-Feb-13 12:00N 44°42' W 063°36'0 0.0 100 / 19997.2 -1.1-1.3
2017-Feb-13 11:00N 44°42' W 063°36'0 0.0 090 / 18999.2 -1.3-1.5
2017-Feb-13 10:00N 44°42' W 063°36'0 0.0 100 / 171001.5 -2.0-2.2
2017-Feb-13 09:00N 44°42' W 063°36'0 0.0 100 / 151004.2 -2.3-3.0
2017-Feb-13 08:00N 44°42' W 063°36'0 0.0 110 / 111006.6 -2.6-3.4
2017-Feb-13 07:00N 44°42' W 063°36'0 0.0 100 / 151009.0 -2.8-3.5
2017-Feb-13 06:00N 44°42' W 063°36'0 0.0 100 / 131011.2 -3.0-3.5
2017-Feb-13 05:00N 44°42' W 063°36'0 0.0 110 / 131012.9 -2.2-4.5
2017-Feb-13 04:00N 44°42' W 063°36'0 0.0 110 / 131014.5 -1.8-4.9
2017-Feb-13 03:00N 44°42' W 063°36'0 0.0 100 / 101015.9 -1.8-5.1
2017-Feb-13 02:00N 44°42' W 063°36'0 0.0 100 / 91017.4 -2.6-6.1
2017-Feb-13 01:00N 44°42' W 063°36'0 0.0 090 / 91020.1 -3.2-6.8
2017-Feb-13 00:00N 44°42' W 063°36'0 0.0 100 / 81020.6 -3.4-7.4
2017-Feb-12 23:00N 44°42' W 063°36'0 0.0 100 / 101021.8 -3.5-7.8
2017-Feb-12 22:00N 44°42' W 063°36'0 0.0 100 / 91022.6 -3.5-8.0
2017-Feb-12 21:00N 44°42' W 063°36'0 0.0 100 / 111023.3 -3.2-8.0
2017-Feb-12 20:00N 44°42' W 063°36'7 7.4 120 / 91023.6 -3.0-8.2
2017-Feb-12 19:00N 44°36' W 063°30'1010.4 080 / 241023.4 -2.7-7.3
2017-Feb-12 18:00N 44°30' W 063°18'1717.1 080 / 201023.7 -1.9-6.3
2017-Feb-12 17:00N 44°30' W 062°54'1414.2 080 / 221024.3 -2.3-7.6
2017-Feb-12 16:00N 44°36' W 062°36'1414.1 060 / 181025.0 -2.3-5.1
2017-Feb-12 15:00N 44°42' W 062°18'1414.1 050 / 171026.6 -3.7-6.2
2017-Feb-12 14:00N 44°48' W 062°00'7 7.4 050 / 171026.4 -4.3-6.7
2017-Feb-12 13:00N 44°54' W 061°54'7 7.4 030 / 181026.5 -6.8-9.1
2017-Feb-12 12:00N 45°00' W 061°48'7 7.4 020 / 161026.1 -8.2-9.9
2017-Feb-12 11:00N 44°54' W 061°54'6 6.0 010 / 151026.2 -9.7-11.2
2017-Feb-12 10:00N 45°00' W 061°54'0 0.0 010 / 111026.1 -11.8-13.4
2017-Feb-12 09:00N 45°00' W 061°54'0 0.0 010 / 101025.8 -11.7-13.6
2017-Feb-12 08:00N 45°00' W 061°54'0 0.0 010 / 91025.5 -11.2-14.5
2017-Feb-12 07:00N 45°00' W 061°54'0 0.0 020 / 101025.7 -10.6-14.5
2017-Feb-12 06:00N 45°00' W 061°54'0 0.0 030 / 101025.7 -10.0-13.5
2017-Feb-12 05:00N 45°00' W 061°54'0 0.0 040 / 81025.4 -10.0-13.0
2017-Feb-12 04:00N 45°00' W 061°54'0 0.0 020 / 91025.1 -9.7-12.6
2017-Feb-12 03:00N 45°00' W 061°54'0 0.0 040 / 71025.2 -9.4-12.3
2017-Feb-12 02:00N 45°00' W 061°54'0 0.0 040 / 61025.3 -8.9-12.4
2017-Feb-12 01:00N 45°00' W 061°54'0 0.0 030 / 51025.1 -8.2-13.2
2017-Feb-12 00:00N 45°00' W 061°54'0 0.0 020 / 41025.1 -7.9-16.4
2017-Feb-11 23:00N 45°00' W 061°54'0 0.0 190 / 21024.6 -8.2-16.5
2017-Feb-11 22:00N 45°00' W 061°54'6 6.0 180 / 31024.3 -8.3-16.1
2017-Feb-11 21:00N 44°54' W 061°54'9 8.5 150 / 21023.8 -8.5-16.3
2017-Feb-11 20:00N 44°54' W 062°06'7 7.4 230 / 21023.3 -8.7-16.4
2017-Feb-11 19:00N 44°48' W 062°12'1414.1 270 / 51023.5 -9.3-15.5
2017-Feb-11 18:00N 44°42' W 062°30'1414.1 290 / 71023.8 -10.1-15.0
2017-Feb-11 17:00N 44°36' W 062°48'1817.6 290 / 71024.2 -9.9-14.3
2017-Feb-11 16:00N 44°24' W 063°06'1312.9 270 / 71024.9 -10.2-16.4
2017-Feb-11 15:00N 44°24' W 063°24'1312.7 280 / 71025.0 -10.6-15.5
2017-Feb-11 14:00N 44°36' W 063°30'4 4.3 300 / 61024.2 -11.4-16.5
2017-Feb-11 13:00N 44°36' W 063°36'6 6.0 260 / 61023.6 -11.8-16.5
2017-Feb-11 12:00N 44°42' W 063°36'0 0.0 270 / 81023.1 -13.0-15.9
2017-Feb-11 11:00N 44°42' W 063°36'0 0.0 270 / 81022.9 -13.0-15.6
2017-Feb-11 10:00N 44°42' W 063°36'0 0.0 270 / 121022.7 -13.4-15.5
2017-Feb-11 09:00N 44°42' W 063°36'0 0.0 260 / 111022.0 -13.7-15.4
2017-Feb-11 08:00N 44°42' W 063°36'0 0.0 260 / 111021.3 -13.9-15.9
2017-Feb-11 07:00N 44°42' W 063°36'0 0.0 270 / 101020.7 -14.0-17.1
2017-Feb-11 06:00N 44°42' W 063°36'0 0.0 280 / 131019.8 -13.6-16.5
2017-Feb-11 05:00N 44°42' W 063°36'0 0.0 290 / 141018.8 -13.3-16.4
2017-Feb-11 04:00N 44°42' W 063°36'0 0.0 290 / 141017.9 -12.9-16.3
2017-Feb-11 03:00N 44°42' W 063°36'0 0.0 310 / 171016.9 -12.5-15.2
2017-Feb-11 02:00N 44°42' W 063°36'0 0.0 300 / 181015.8 -12.3-14.5
2017-Feb-11 01:00N 44°42' W 063°36'0 0.0 300 / 161014.8 -12.2-15.1
2017-Feb-11 00:00N 44°42' W 063°36'0 0.0 290 / 171013.7 -11.8-14.9
2017-Feb-10 23:00N 44°42' W 063°36'0 0.0 290 / 211012.0 -11.1-14.6
2017-Feb-10 22:00N 44°42' W 063°36'0 0.0 280 / 231010.2 -10.3-14.9
2017-Feb-10 21:00N 44°42' W 063°36'0 0.0 280 / 201008.7 -9.8-15.1
2017-Feb-10 20:00N 44°42' W 063°36'0 0.0 270 / 221007.7 -9.4-14.9
2017-Feb-10 19:00N 44°42' W 063°36'0 0.0 270 / 221006.7 -9.2-14.9
2017-Feb-10 18:00N 44°42' W 063°36'0 0.0 280 / 161005.6 -8.9-13.7
2017-Feb-10 17:00N 44°42' W 063°36'0 0.0 270 / 191004.7 -9.3-13.7
2017-Feb-10 16:00N 44°42' W 063°36'0 0.0 280 / 201004.4 -9.9-14.1
2017-Feb-10 15:00N 44°42' W 063°36'0 0.0 280 / 211003.5 -9.7-13.2
2017-Feb-10 14:00N 44°42' W 063°36'0 0.0 290 / 211002.7 -9.7-13.1
2017-Feb-10 13:00N 44°42' W 063°36'0 0.0 280 / 241002.0 -9.7-12.6
2017-Feb-10 12:00N 44°42' W 063°36'0 0.0 280 / 19999.9 -8.9-11.3
2017-Feb-10 11:00N 44°42' W 063°36'0 0.0 290 / 23995.5 -8.5-10.8
2017-Feb-10 10:00N 44°42' W 063°36'0 0.0 290 / 27993.2 -9.2-11.4
2017-Feb-10 09:00N 44°42' W 063°36'0 0.0 290 / 35988.3 -7.9-9.4
2017-Feb-10 08:00N 44°42' W 063°36'0 0.0 310 / 26982.5 -6.0-7.4
2017-Feb-10 07:00N 44°42' W 063°36'0 0.0 330 / 28978.5 -5.3-6.0
2017-Feb-10 06:00N 44°42' W 063°36'0 0.0 340 / 23977.4 -5.2-5.6
2017-Feb-10 05:00N 44°42' W 063°36'0 0.0 340 / 17978.3 -5.7-6.1
2017-Feb-10 04:00N 44°42' W 063°36'0 0.0 350 / 12979.6 -5.2-5.5
2017-Feb-10 03:00N 44°42' W 063°36'0 0.0 340 / 6981.9 -4.9-5.1
2017-Feb-10 02:00N 44°42' W 063°36'0 0.0 030 / 4983.6 -5.1-5.3
2017-Feb-10 01:00N 44°42' W 063°36'0 0.0 050 / 6985.5 -5.1-5.7
2017-Feb-10 00:00N 44°42' W 063°36'0 0.0 030 / 6990.1 -5.0-5.2
2017-Feb-09 23:00N 44°42' W 063°36'0 0.0 060 / 7994.5 -3.8-7.2
2017-Feb-09 22:00N 44°42' W 063°36'0 0.0 060 / 9997.7 -3.5-8.8
2017-Feb-09 21:00N 44°42' W 063°36'0 0.0 050 / 71000.8 -2.6-8.7
2017-Feb-09 20:00N 44°42' W 063°36'0 0.0 010 / 71003.8 -2.1-9.2
2017-Feb-09 19:00N 44°42' W 063°36'0 0.0 360 / 81005.8 -1.7-9.1
2017-Feb-09 18:00N 44°42' W 063°36'0 0.0 350 / 71005.4 -1.2-7.9
2017-Feb-09 17:00N 44°42' W 063°36'0 0.0 050 / 31006.3 -0.8-7.4
2017-Feb-09 16:00N 44°42' W 063°36'0 0.0 030 / 31007.0 -1.5-6.9
2017-Feb-09 15:00N 44°42' W 063°36'0 0.0 020 / 51007.6 -2.1-6.3
2017-Feb-09 14:00N 44°42' W 063°36'0 0.0 060 / 51007.7 -2.3-5.6
2017-Feb-09 13:00N 44°42' W 063°36'0 0.0 020 / 61008.2 -2.7-5.4
2017-Feb-09 12:00N 44°42' W 063°36'0 0.0 010 / 51007.3 -2.6-6.1
2017-Feb-09 11:00N 44°42' W 063°36'   340 / 81006.4 -2.2-6.6

Dump ship's entire track history